Time;durP1;ratioP1;P1;durP2;ratioP2;P2;SDS_P1;SDS_P2;PMS_P1;PMS_P2;Temp;Humidity;BMP_temperature;BMP_pressure;BME280_temperature;BME280_humidity;BME280_pressure;Samples;Min_cycle;Max_cycle;Signal;HPM_P1;HPM_P2
2021/06/11 00:01:45;;;;;;;7.05;5.45;;;;;;;;;;5094617;28;20050;-69
2021/06/11 00:04:11;;;;;;;6.53;5.25;;;;;;;;;;5094397;28;20151;-69
2021/06/11 00:06:37;;;;;;;7.40;5.55;;;;;;;;;;5094685;28;20080;-69
2021/06/11 00:09:06;;;;;;;5.45;4.55;;;;;;;;;;5094574;28;20055;-69
2021/06/11 00:11:32;;;;;;;5.70;4.80;;;;;;;;;;5094154;28;20511;-69
2021/06/11 00:14:00;;;;;;;7.82;5.45;;;;;;;;;;5094369;28;20073;-69
2021/06/11 00:16:26;;;;;;;7.15;4.97;;;;;;;;;;5094756;28;20048;-69
2021/06/11 00:18:52;;;;;;;5.93;4.65;;;;;;;;;;5094305;28;20056;-69
2021/06/11 00:21:18;;;;;;;6.95;4.85;;;;;;;;;;5094246;28;20382;-69
2021/06/11 00:23:44;;;;;;;7.78;5.13;;;;;;;;;;5089687;28;20562;-69
2021/06/11 00:26:10;;;;;;;6.40;4.32;;;;;;;;;;5085519;28;20506;-69
2021/06/11 00:28:36;;;;;;;5.78;4.97;;;;;;;;;;5094020;28;20052;-69
2021/06/11 00:31:04;;;;;;;5.53;4.90;;;;;;;;;;5094231;28;20052;-69
2021/06/11 00:33:30;;;;;;;7.93;5.10;;;;;;;;;;5094421;28;20105;-70
2021/06/11 00:35:56;;;;;;;7.38;4.60;;;;;;;;;;5094538;28;20477;-69
2021/06/11 00:38:22;;;;;;;5.47;4.40;;;;;;;;;;5093972;28;20063;-69
2021/06/11 00:40:48;;;;;;;6.22;5.22;;;;;;;;;;5093274;28;20079;-69
2021/06/11 00:43:14;;;;;;;9.70;4.70;;;;;;;;;;5093893;28;20052;-69
2021/06/11 00:45:41;;;;;;;6.50;4.20;;;;;;;;;;5093986;28;20473;-69
2021/06/11 00:48:08;;;;;;;5.85;4.65;;;;;;;;;;5093979;28;20071;-69
2021/06/11 00:50:36;;;;;;;6.10;4.35;;;;;;;;;;5093604;28;20067;-69
2021/06/11 00:53:02;;;;;;;7.55;5.05;;;;;;;;;;5093071;28;20458;-68
2021/06/11 00:55:28;;;;;;;6.55;4.72;;;;;;;;;;5085568;28;20436;-69
2021/06/11 00:57:55;;;;;;;8.27;4.60;;;;;;;;;;5083326;28;20063;-69
2021/06/11 01:00:21;;;;;;;7.40;4.60;;;;;;;;;;5093683;28;20074;-69
2021/06/11 01:02:47;;;;;;;5.53;4.53;;;;;;;;;;5093175;28;20050;-69
2021/06/11 01:05:15;;;;;;;6.10;4.63;;;;;;;;;;5093427;28;20048;-69
2021/06/11 01:07:42;;;;;;;6.13;4.68;;;;;;;;;;5093588;28;20066;-69
2021/06/11 01:10:10;;;;;;;5.15;4.15;;;;;;;;;;5093497;28;20052;-69
2021/06/11 01:12:37;;;;;;;6.40;4.55;;;;;;;;;;5093164;28;20046;-69
2021/06/11 01:15:05;;;;;;;7.13;4.63;;;;;;;;;;5093455;28;20063;-69
2021/06/11 01:17:34;;;;;;;6.82;4.78;;;;;;;;;;5093388;28;20492;-69
2021/06/11 01:20:01;;;;;;;7.90;4.68;;;;;;;;;;5084696;28;20044;-69
2021/06/11 01:22:37;;;;;;;5.57;4.40;;;;;;;;;;5072945;28;20389;-69
2021/06/11 01:25:08;;;;;;;5.60;4.32;;;;;;;;;;5073200;28;20055;-69
2021/06/11 01:27:36;;;;;;;6.72;5.13;;;;;;;;;;5072738;28;20044;-69
2021/06/11 01:30:06;;;;;;;6.30;4.45;;;;;;;;;;5074643;28;20044;-69
2021/06/11 01:32:34;;;;;;;6.22;4.90;;;;;;;;;;5072824;28;20056;-69
2021/06/11 01:35:03;;;;;;;7.72;5.75;;;;;;;;;;5077212;28;20048;-69
2021/06/11 01:37:32;;;;;;;8.23;5.28;;;;;;;;;;5093205;28;20056;-69
2021/06/11 01:40:02;;;;;;;6.13;4.70;;;;;;;;;;5092075;28;20048;-68
2021/06/11 01:42:29;;;;;;;4.97;3.95;;;;;;;;;;5092619;28;20048;-69
2021/06/11 01:44:56;;;;;;;6.68;4.68;;;;;;;;;;5092355;28;20484;-69
2021/06/11 01:47:23;;;;;;;7.40;5.38;;;;;;;;;;5092667;28;20066;-69
2021/06/11 01:49:50;;;;;;;6.07;4.53;;;;;;;;;;5092257;28;20131;-69
2021/06/11 01:52:17;;;;;;;6.82;4.43;;;;;;;;;;5090183;28;20098;-69
2021/06/11 01:54:44;;;;;;;6.97;4.40;;;;;;;;;;5076894;28;20052;-69
2021/06/11 01:57:10;;;;;;;5.47;4.45;;;;;;;;;;5091218;28;20063;-69
2021/06/11 01:59:37;;;;;;;6.53;4.65;;;;;;;;;;5084101;28;20048;-69
2021/06/11 02:02:04;;;;;;;6.07;5.00;;;;;;;;;;5092021;28;20040;-69
2021/06/11 02:04:31;;;;;;;7.07;4.45;;;;;;;;;;5091934;28;20094;-69
2021/06/11 02:06:57;;;;;;;6.10;4.90;;;;;;;;;;5092241;28;20044;-69
2021/06/11 02:09:25;;;;;;;5.20;4.10;;;;;;;;;;5092017;28;20051;-69
2021/06/11 02:11:51;;;;;;;5.88;4.90;;;;;;;;;;5091790;28;20048;-69
2021/06/11 02:14:18;;;;;;;6.55;4.70;;;;;;;;;;5092049;28;20081;-69
2021/06/11 02:16:45;;;;;;;9.07;5.70;;;;;;;;;;5092146;28;20476;-69
2021/06/11 02:19:13;;;;;;;6.18;4.90;;;;;;;;;;5089063;28;20052;-69
2021/06/11 02:21:40;;;;;;;10.32;5.65;;;;;;;;;;5072368;28;20052;-69
2021/06/11 02:24:07;;;;;;;6.15;5.20;;;;;;;;;;5079861;28;20047;-69
2021/06/11 02:26:32;;;;;;;7.35;4.80;;;;;;;;;;5092387;28;20404;-68
2021/06/11 02:28:58;;;;;;;8.85;5.25;;;;;;;;;;5092235;28;20052;-68
2021/06/11 02:31:24;;;;;;;7.25;5.25;;;;;;;;;;5091912;28;20447;-68
2021/06/11 02:33:50;;;;;;;6.18;4.88;;;;;;;;;;5091647;28;20048;-68
2021/06/11 02:36:18;;;;;;;5.63;4.65;;;;;;;;;;5092018;28;20140;-68
2021/06/11 02:38:44;;;;;;;5.97;5.05;;;;;;;;;;5092073;28;20695;-68
2021/06/11 02:41:14;;;;;;;7.03;5.43;;;;;;;;;;5092054;28;20044;-69
2021/06/11 02:43:42;;;;;;;7.93;6.43;;;;;;;;;;5091871;28;20047;-69
2021/06/11 02:46:12;;;;;;;9.82;6.10;;;;;;;;;;5092197;28;20401;-69
2021/06/11 02:48:40;;;;;;;6.82;5.03;;;;;;;;;;5092205;28;20056;-68
2021/06/11 02:51:09;;;;;;;6.82;5.05;;;;;;;;;;5073922;28;20048;-69
2021/06/11 02:53:38;;;;;;;6.43;4.75;;;;;;;;;;5075546;28;20051;-69
2021/06/11 02:56:15;;;;;;;6.78;4.93;;;;;;;;;;5080380;28;20388;-69
2021/06/11 02:58:44;;;;;;;7.30;5.15;;;;;;;;;;5093846;28;20113;-69
2021/06/11 03:01:11;;;;;;;5.60;4.65;;;;;;;;;;5087756;28;20373;-69
2021/06/11 03:03:39;;;;;;;7.78;5.38;;;;;;;;;;5095610;28;20062;-69
2021/06/11 03:06:05;;;;;;;7.18;5.35;;;;;;;;;;5095847;28;20080;-69
2021/06/11 03:08:35;;;;;;;7.55;5.55;;;;;;;;;;5095583;28;20052;-69
2021/06/11 03:11:06;;;;;;;7.13;4.70;;;;;;;;;;5075361;28;20442;-69
2021/06/11 03:13:34;;;;;;;7.65;5.85;;;;;;;;;;5075254;28;20472;-69
2021/06/11 03:16:00;;;;;;;7.22;5.47;;;;;;;;;;5075537;28;20048;-69
2021/06/11 03:18:30;;;;;;;7.72;4.78;;;;;;;;;;5075405;28;20695;-69
2021/06/11 03:20:58;;;;;;;8.45;6.05;;;;;;;;;;5075324;28;20056;-69
2021/06/11 03:23:27;;;;;;;6.95;5.75;;;;;;;;;;5075198;28;20040;-69
2021/06/11 03:25:56;;;;;;;7.38;5.72;;;;;;;;;;5074797;28;20098;-69
2021/06/11 03:28:27;;;;;;;7.00;5.75;;;;;;;;;;5075498;28;20492;-69
2021/06/11 03:30:56;;;;;;;8.02;5.57;;;;;;;;;;5094978;28;20051;-69
2021/06/11 03:33:25;;;;;;;7.15;6.28;;;;;;;;;;5094447;28;20048;-69
2021/06/11 03:35:55;;;;;;;7.50;6.25;;;;;;;;;;5095097;28;20044;-69
2021/06/11 03:38:23;;;;;;;6.50;5.68;;;;;;;;;;5095348;28;20125;-69
2021/06/11 03:40:49;;;;;;;8.48;5.70;;;;;;;;;;5094927;28;20058;-68
2021/06/11 03:43:16;;;;;;;16.55;7.32;;;;;;;;;;5095146;28;20048;-69
2021/06/11 03:45:44;;;;;;;8.23;6.13;;;;;;;;;;5094868;28;20409;-69
2021/06/11 03:48:11;;;;;;;8.75;5.70;;;;;;;;;;5090521;28;20335;-68
2021/06/11 03:50:37;;;;;;;7.95;5.13;;;;;;;;;;5090444;28;20529;-68
2021/06/11 03:53:04;;;;;;;6.93;5.22;;;;;;;;;;5094729;28;20063;-69
2021/06/11 03:55:35;;;;;;;6.80;5.60;;;;;;;;;;5094048;28;20078;-69
2021/06/11 03:58:04;;;;;;;7.63;5.68;;;;;;;;;;5092689;28;20082;-69
2021/06/11 04:00:32;;;;;;;6.70;5.28;;;;;;;;;;5081129;28;20054;-68
2021/06/11 04:03:00;;;;;;;6.90;4.93;;;;;;;;;;5079600;28;20086;-68
2021/06/11 04:05:26;;;;;;;11.82;5.70;;;;;;;;;;5074536;28;20049;-67
2021/06/11 04:07:53;;;;;;;6.07;4.88;;;;;;;;;;5074634;28;20048;-67
2021/06/11 04:10:23;;;;;;;11.60;5.53;;;;;;;;;;5074281;28;20066;-67
2021/06/11 04:12:53;;;;;;;6.28;5.07;;;;;;;;;;5074018;28;20045;-67
2021/06/11 04:15:19;;;;;;;18.63;8.00;;;;;;;;;;5073934;28;20615;-67
2021/06/11 04:17:47;;;;;;;8.15;5.18;;;;;;;;;;5073982;28;20044;-67
2021/06/11 04:20:23;;;;;;;8.73;5.20;;;;;;;;;;5073473;28;20044;-68
2021/06/11 04:22:50;;;;;;;5.97;4.67;;;;;;;;;;5073190;28;20128;-68
2021/06/11 04:25:16;;;;;;;8.45;5.03;;;;;;;;;;5073135;28;20298;-68
2021/06/11 04:27:44;;;;;;;5.72;4.57;;;;;;;;;;5073706;28;20044;-68
2021/06/11 04:30:11;;;;;;;7.63;5.22;;;;;;;;;;5073574;28;20059;-68
2021/06/11 04:32:37;;;;;;;8.95;5.35;;;;;;;;;;5073684;28;20041;-68
2021/06/11 04:35:05;;;;;;;8.80;6.40;;;;;;;;;;5073270;28;20056;-68
2021/06/11 04:37:32;;;;;;;10.77;8.80;;;;;;;;;;5066377;28;20390;-68
2021/06/11 04:39:58;;;;;;;16.77;12.50;;;;;;;;;;5053929;28;20045;-68
2021/06/11 04:42:24;;;;;;;13.60;9.45;;;;;;;;;;5053317;28;20041;-68
2021/06/11 04:44:50;;;;;;;9.52;7.53;;;;;;;;;;5062749;28;20697;-68
2021/06/11 04:47:16;;;;;;;10.48;7.95;;;;;;;;;;5066509;28;20052;-68
2021/06/11 04:49:42;;;;;;;10.25;7.20;;;;;;;;;;5073531;28;20055;-68
2021/06/11 04:52:08;;;;;;;7.35;6.00;;;;;;;;;;5073619;28;20048;-68
2021/06/11 04:54:36;;;;;;;9.73;6.30;;;;;;;;;;5072776;28;20087;-68
2021/06/11 04:57:02;;;;;;;9.55;6.07;;;;;;;;;;5073101;28;20048;-68
2021/06/11 04:59:28;;;;;;;10.27;6.93;;;;;;;;;;5069571;28;20063;-68
2021/06/11 05:01:54;;;;;;;11.70;6.03;;;;;;;;;;5065242;28;20049;-68
2021/06/11 05:04:22;;;;;;;9.20;7.38;;;;;;;;;;5072575;28;20217;-68
2021/06/11 05:06:48;;;;;;;9.15;6.35;;;;;;;;;;5072774;28;20123;-68
2021/06/11 05:09:14;;;;;;;7.72;6.88;;;;;;;;;;5073205;28;20048;-68
2021/06/11 05:11:41;;;;;;;9.60;6.72;;;;;;;;;;5080807;28;20472;-68
2021/06/11 05:14:07;;;;;;;7.88;6.28;;;;;;;;;;5092526;28;20048;-68
2021/06/11 05:16:33;;;;;;;11.50;6.70;;;;;;;;;;5093155;28;20059;-68
2021/06/11 05:18:59;;;;;;;10.50;7.82;;;;;;;;;;5093108;28;20048;-68
2021/06/11 05:21:25;;;;;;;14.52;7.00;;;;;;;;;;5092213;28;20181;-68
2021/06/11 05:23:51;;;;;;;13.57;7.93;;;;;;;;;;5087968;28;20473;-68
2021/06/11 05:26:17;;;;;;;10.35;6.88;;;;;;;;;;5072620;28;20150;-68
2021/06/11 05:28:44;;;;;;;8.30;7.28;;;;;;;;;;5072329;28;20469;-68
2021/06/11 05:31:10;;;;;;;10.70;7.25;;;;;;;;;;5072309;28;20072;-68
2021/06/11 05:33:36;;;;;;;13.20;6.93;;;;;;;;;;5071838;28;20048;-68
2021/06/11 05:36:03;;;;;;;10.68;7.18;;;;;;;;;;5072403;28;20053;-68
2021/06/11 05:38:29;;;;;;;9.88;7.53;;;;;;;;;;5072481;28;20546;-68
2021/06/11 05:40:55;;;;;;;9.93;7.75;;;;;;;;;;5072626;28;20048;-68
2021/06/11 05:43:21;;;;;;;11.38;8.25;;;;;;;;;;5071712;28;20087;-68
2021/06/11 05:45:48;;;;;;;9.02;7.47;;;;;;;;;;5072524;28;20075;-68
2021/06/11 05:48:14;;;;;;;13.18;7.95;;;;;;;;;;5072479;28;20044;-68
2021/06/11 05:50:41;;;;;;;8.38;7.30;;;;;;;;;;5072804;28;20270;-68
2021/06/11 05:53:08;;;;;;;10.40;7.93;;;;;;;;;;5072591;28;20049;-69
2021/06/11 05:55:34;;;;;;;8.27;7.45;;;;;;;;;;5072491;28;20096;-68
2021/06/11 05:58:00;;;;;;;9.55;7.63;;;;;;;;;;5072541;28;20049;-68
2021/06/11 06:00:26;;;;;;;9.65;7.47;;;;;;;;;;5084736;28;20444;-68
2021/06/11 06:02:53;;;;;;;9.10;7.05;;;;;;;;;;5081626;28;20044;-68
2021/06/11 06:05:20;;;;;;;12.80;8.13;;;;;;;;;;5092678;28;20366;-68
2021/06/11 06:07:46;;;;;;;9.07;7.50;;;;;;;;;;5092361;28;20054;-68
2021/06/11 06:10:13;;;;;;;9.40;7.22;;;;;;;;;;5092297;28;20051;-68
2021/06/11 06:12:39;;;;;;;9.60;7.57;;;;;;;;;;5092091;28;20040;-68
2021/06/11 06:15:06;;;;;;;9.18;7.97;;;;;;;;;;5090846;28;20058;-68
2021/06/11 06:17:35;;;;;;;9.25;6.80;;;;;;;;;;5092389;28;20070;-68
2021/06/11 06:20:03;;;;;;;12.07;8.63;;;;;;;;;;5090825;28;20067;-68
2021/06/11 06:22:29;;;;;;;8.07;7.25;;;;;;;;;;5077275;28;20068;-68
2021/06/11 06:24:55;;;;;;;9.48;7.53;;;;;;;;;;5072733;28;20053;-68
2021/06/11 06:27:21;;;;;;;12.43;7.30;;;;;;;;;;5075915;28;20136;-68
2021/06/11 06:29:47;;;;;;;9.25;8.00;;;;;;;;;;5076500;28;20397;-68
2021/06/11 06:32:13;;;;;;;13.05;8.10;;;;;;;;;;5076136;28;20067;-68
2021/06/11 06:34:39;;;;;;;8.82;6.90;;;;;;;;;;5076348;28;20102;-68
2021/06/11 06:37:10;;;;;;;8.13;6.97;;;;;;;;;;5076420;28;20087;-68
2021/06/11 06:39:36;;;;;;;12.75;7.10;;;;;;;;;;5076429;28;20090;-68
2021/06/11 06:42:02;;;;;;;8.45;6.55;;;;;;;;;;5075992;28;20047;-68
2021/06/11 06:44:28;;;;;;;19.25;7.90;;;;;;;;;;5075923;28;20052;-68
2021/06/11 06:46:54;;;;;;;9.93;7.25;;;;;;;;;;5076141;28;20106;-68
2021/06/11 06:49:20;;;;;;;9.65;7.78;;;;;;;;;;5076067;28;20135;-69
2021/06/11 06:51:47;;;;;;;10.00;7.25;;;;;;;;;;5076139;28;20044;-69
2021/06/11 06:54:14;;;;;;;8.82;7.32;;;;;;;;;;5076432;28;20098;-68
2021/06/11 06:56:40;;;;;;;14.20;6.80;;;;;;;;;;5075767;28;20079;-68
2021/06/11 06:59:06;;;;;;;8.60;6.85;;;;;;;;;;5075923;28;20465;-68
2021/06/11 07:01:32;;;;;;;7.22;6.53;;;;;;;;;;5088317;28;20072;-68
2021/06/11 07:04:00;;;;;;;8.32;6.22;;;;;;;;;;5085950;28;20059;-69
2021/06/11 07:06:27;;;;;;;8.38;6.68;;;;;;;;;;5095499;28;20065;-69
2021/06/11 07:08:53;;;;;;;6.78;6.07;;;;;;;;;;5095730;28;20059;-69
2021/06/11 07:11:21;;;;;;;7.57;5.88;;;;;;;;;;5095482;28;20047;-69
2021/06/11 07:13:47;;;;;;;7.60;6.72;;;;;;;;;;5095980;28;20388;-69
2021/06/11 07:16:13;;;;;;;7.63;6.30;;;;;;;;;;5095358;28;20044;-69
2021/06/11 07:18:40;;;;;;;6.78;6.10;;;;;;;;;;5095694;28;20052;-68
2021/06/11 07:21:06;;;;;;;8.25;6.38;;;;;;;;;;5094624;28;20101;-69
2021/06/11 07:23:33;;;;;;;8.35;6.25;;;;;;;;;;5086446;28;20044;-69
2021/06/11 07:25:59;;;;;;;6.95;6.15;;;;;;;;;;5095399;28;20048;-69
2021/06/11 07:28:27;;;;;;;6.13;5.53;;;;;;;;;;5095111;28;20066;-69
2021/06/11 07:30:53;;;;;;;8.23;6.53;;;;;;;;;;5094945;28;20048;-69
2021/06/11 07:33:19;;;;;;;6.65;6.00;;;;;;;;;;5094980;28;20036;-69
2021/06/11 07:35:45;;;;;;;10.60;6.28;;;;;;;;;;5110781;28;20097;-69
2021/06/11 07:38:11;;;;;;;8.80;7.32;;;;;;;;;;5094536;28;20097;-68
2021/06/11 07:40:37;;;;;;;7.75;6.20;;;;;;;;;;5095274;28;20048;-68
2021/06/11 07:43:03;;;;;;;6.88;5.95;;;;;;;;;;5095379;28;20097;-68
2021/06/11 07:45:31;;;;;;;7.75;6.03;;;;;;;;;;5095013;28;20063;-67
2021/06/11 07:47:57;;;;;;;12.02;6.28;;;;;;;;;;5095373;28;20423;-68
2021/06/11 07:50:24;;;;;;;9.98;5.82;;;;;;;;;;5094437;28;20076;-68
2021/06/11 07:52:50;;;;;;;6.35;4.93;;;;;;;;;;5077419;28;20053;-68
2021/06/11 07:55:16;;;;;;;8.15;5.75;;;;;;;;;;5074775;28;20542;-68
2021/06/11 07:57:42;;;;;;;5.75;5.15;;;;;;;;;;5074975;28;20055;-68
2021/06/11 08:00:09;;;;;;;9.80;5.10;;;;;;;;;;5074706;28;20127;-68
2021/06/11 08:02:38;;;;;;;5.30;4.30;;;;;;;;;;5088766;28;20400;-68
2021/06/11 08:05:05;;;;;;;8.05;4.80;;;;;;;;;;5084809;28;20641;-68
2021/06/11 08:07:31;;;;;;;5.13;4.45;;;;;;;;;;5094313;28;20059;-68
2021/06/11 08:09:58;;;;;;;5.40;4.22;;;;;;;;;;5093962;28;20098;-68
2021/06/11 08:12:24;;;;;;;5.47;4.90;;;;;;;;;;5093862;28;20048;-68
2021/06/11 08:14:50;;;;;;;4.97;4.45;;;;;;;;;;5093850;28;20047;-68
2021/06/11 08:17:16;;;;;;;4.90;4.40;;;;;;;;;;5094127;28;20587;-68
2021/06/11 08:19:44;;;;;;;6.65;4.60;;;;;;;;;;5089618;28;20048;-68
2021/06/11 08:22:10;;;;;;;5.47;4.97;;;;;;;;;;5073929;28;20045;-68
2021/06/11 08:24:36;;;;;;;4.50;4.10;;;;;;;;;;5075312;28;20048;-68
2021/06/11 08:27:02;;;;;;;6.90;4.43;;;;;;;;;;5074068;28;20053;-67
2021/06/11 08:29:28;;;;;;;6.28;4.93;;;;;;;;;;5074025;28;20052;-67
2021/06/11 08:31:54;;;;;;;6.95;5.03;;;;;;;;;;5074130;28;20056;-67
2021/06/11 08:34:20;;;;;;;10.15;5.25;;;;;;;;;;5074108;28;20059;-67
2021/06/11 08:36:48;;;;;;;7.18;4.50;;;;;;;;;;5073484;28;20089;-67
2021/06/11 08:39:14;;;;;;;7.63;4.80;;;;;;;;;;5073704;28;20083;-67
2021/06/11 08:41:40;;;;;;;10.40;4.72;;;;;;;;;;5073610;28;20052;-67
2021/06/11 08:44:07;;;;;;;5.57;4.18;;;;;;;;;;5073040;28;20040;-67
2021/06/11 08:46:33;;;;;;;4.95;4.07;;;;;;;;;;5073306;28;20048;-67
2021/06/11 08:49:01;;;;;;;5.30;4.13;;;;;;;;;;5074767;28;20105;-68
2021/06/11 08:51:27;;;;;;;6.38;4.45;;;;;;;;;;5080309;28;20481;-68
2021/06/11 08:53:55;;;;;;;5.50;4.10;;;;;;;;;;5082710;28;20131;-68
2021/06/11 08:56:21;;;;;;;4.90;4.40;;;;;;;;;;5085187;28;20400;-68
2021/06/11 08:58:49;;;;;;;4.40;3.97;;;;;;;;;;5073329;28;20105;-68
2021/06/11 09:01:15;;;;;;;4.30;3.63;;;;;;;;;;5078995;28;20052;-68
2021/06/11 09:03:44;;;;;;;4.28;3.78;;;;;;;;;;5087101;28;20109;-68
2021/06/11 09:06:15;;;;;;;4.82;4.18;;;;;;;;;;5077159;28;20086;-68
2021/06/11 09:08:43;;;;;;;5.53;4.05;;;;;;;;;;5093547;28;20250;-68
2021/06/11 09:11:12;;;;;;;5.15;4.65;;;;;;;;;;5092979;28;20048;-68
2021/06/11 09:13:41;;;;;;;4.90;4.00;;;;;;;;;;5093105;28;20051;-69
2021/06/11 09:16:09;;;;;;;4.55;3.85;;;;;;;;;;5082408;28;20066;-68
2021/06/11 09:18:46;;;;;;;4.45;3.60;;;;;;;;;;5073091;28;20054;-69
2021/06/11 09:21:33;;;;;;;4.18;3.28;;;;;;;;;;5074143;28;20049;-68
2021/06/11 09:24:11;;;;;;;6.55;4.05;;;;;;;;;;5072820;28;20076;-70
2021/06/11 09:26:39;;;;;;;4.70;3.55;;;;;;;;;;5073162;28;20049;-69
2021/06/11 09:29:19;;;;;;;5.05;3.75;;;;;;;;;;5073098;28;20056;-69
2021/06/11 09:31:45;;;;;;;4.22;3.28;;;;;;;;;;5086552;28;20415;-69
2021/06/11 09:34:22;;;;;;;4.18;3.55;;;;;;;;;;5082954;28;20052;-69
2021/06/11 09:37:00;;;;;;;4.72;3.00;;;;;;;;;;5084649;28;20073;-69
2021/06/11 09:39:39;;;;;;;4.30;3.10;;;;;;;;;;5079773;28;20040;-68
2021/06/11 09:42:08;;;;;;;4.35;3.10;;;;;;;;;;5079662;28;20453;-69
2021/06/11 09:44:34;;;;;;;4.25;3.05;;;;;;;;;;5085654;28;20056;-69
2021/06/11 09:47:00;;;;;;;5.00;3.90;;;;;;;;;;5079921;28;20668;-69
2021/06/11 09:49:28;;;;;;;4.25;3.85;;;;;;;;;;5081357;28;20060;-68
2021/06/11 09:52:04;;;;;;;4.40;3.40;;;;;;;;;;5080737;28;20098;-69
2021/06/11 09:54:30;;;;;;;4.22;3.53;;;;;;;;;;5085300;28;20052;-69
2021/06/11 09:56:57;;;;;;;4.85;3.88;;;;;;;;;;5082871;28;20053;-68
2021/06/11 09:59:42;;;;;;;5.30;4.05;;;;;;;;;;5080125;28;20519;-68
2021/06/11 10:02:12;;;;;;;3.67;3.15;;;;;;;;;;5078070;28;20040;-69
2021/06/11 10:04:38;;;;;;;4.90;4.00;;;;;;;;;;5076389;28;20048;-68
2021/06/11 10:07:05;;;;;;;4.78;3.70;;;;;;;;;;5081857;28;20045;-68
2021/06/11 10:09:31;;;;;;;5.80;4.05;;;;;;;;;;5072356;28;20400;-68
2021/06/11 10:11:57;;;;;;;5.68;4.00;;;;;;;;;;5072002;28;20139;-68
2021/06/11 10:14:23;;;;;;;4.65;3.85;;;;;;;;;;5073768;28;20056;-68
2021/06/11 10:16:50;;;;;;;6.82;3.63;;;;;;;;;;5074528;28;20445;-68
2021/06/11 10:19:16;;;;;;;5.35;4.15;;;;;;;;;;5092631;28;20052;-69
2021/06/11 10:21:44;;;;;;;4.28;3.78;;;;;;;;;;5092613;28;20060;-68
2021/06/11 10:24:10;;;;;;;4.53;3.45;;;;;;;;;;5092411;28;20048;-68
2021/06/11 10:26:37;;;;;;;6.90;3.85;;;;;;;;;;5092393;28;20058;-68
2021/06/11 10:29:03;;;;;;;7.68;4.30;;;;;;;;;;5092565;28;20048;-68
2021/06/11 10:31:36;;;;;;;4.95;3.80;;;;;;;;;;5091862;28;20047;-68
2021/06/11 10:34:04;;;;;;;5.72;3.83;;;;;;;;;;5092486;28;20048;-68
2021/06/11 10:36:40;;;;;;;4.93;3.85;;;;;;;;;;5080040;28;20048;-68
2021/06/11 10:39:24;;;;;;;6.65;3.88;;;;;;;;;;5076329;28;20056;-68
2021/06/11 10:41:59;;;;;;;4.00;3.40;;;;;;;;;;5087597;28;20047;-68
2021/06/11 10:44:36;;;;;;;5.35;3.63;;;;;;;;;;5078801;28;20083;-68
2021/06/11 10:47:24;;;;;;;4.72;3.60;;;;;;;;;;5078060;28;20056;-68
2021/06/11 10:50:14;;;;;;;5.15;4.53;;;;;;;;;;5083009;28;20059;-68
2021/06/11 10:52:47;;;;;;;4.57;4.18;;;;;;;;;;5080719;28;20044;-66
2021/06/11 10:55:44;;;;;;;5.45;4.25;;;;;;;;;;5079667;28;20044;-70
2021/06/11 10:58:26;;;;;;;5.47;3.47;;;;;;;;;;5080886;28;20101;-68
2021/06/11 11:00:53;;;;;;;5.32;3.65;;;;;;;;;;5079229;28;20470;-68
2021/06/11 11:03:32;;;;;;;6.25;3.92;;;;;;;;;;5079525;28;20098;-68
2021/06/11 11:06:36;;;;;;;7.53;3.70;;;;;;;;;;5071440;28;20094;-68
2021/06/11 11:09:07;;;;;;;6.10;3.75;;;;;;;;;;5072313;28;20157;-68
2021/06/11 11:11:40;;;;;;;7.00;3.67;;;;;;;;;;5079322;28;20052;-69
2021/06/11 11:14:06;;;;;;;5.20;4.18;;;;;;;;;;5086594;28;20048;-68
2021/06/11 11:16:37;;;;;;;5.28;4.20;;;;;;;;;;5094577;28;20177;-68
2021/06/11 11:19:05;;;;;;;8.15;4.20;;;;;;;;;;5086713;28;20518;-68
2021/06/11 11:21:34;;;;;;;8.07;3.53;;;;;;;;;;5093285;28;20076;-68
2021/06/11 11:24:03;;;;;;;5.00;3.60;;;;;;;;;;5086740;28;20094;-69
2021/06/11 11:26:47;;;;;;;4.78;3.85;;;;;;;;;;5091386;28;20117;-68
2021/06/11 11:29:14;;;;;;;5.35;3.38;;;;;;;;;;5080999;28;20044;-68
2021/06/11 11:31:42;;;;;;;6.63;3.65;;;;;;;;;;5085306;28;20587;-68
2021/06/11 11:34:08;;;;;;;5.18;3.65;;;;;;;;;;5086738;28;20045;-68
2021/06/11 11:36:35;;;;;;;4.70;3.58;;;;;;;;;;5075221;28;20048;-68
2021/06/11 11:39:04;;;;;;;7.20;3.88;;;;;;;;;;5085179;28;21018;-68
2021/06/11 11:41:30;;;;;;;4.45;3.50;;;;;;;;;;5086926;28;20052;-68
2021/06/11 11:43:56;;;;;;;3.75;3.40;;;;;;;;;;5089684;28;20112;-68
2021/06/11 11:46:22;;;;;;;4.45;3.50;;;;;;;;;;5082751;28;20080;-68
2021/06/11 11:48:48;;;;;;;6.13;3.20;;;;;;;;;;5081818;28;20400;-68
2021/06/11 11:51:14;;;;;;;4.28;3.42;;;;;;;;;;5084543;28;20135;-68
2021/06/11 11:53:40;;;;;;;4.85;3.67;;;;;;;;;;5080018;28;20045;-68
2021/06/11 11:56:07;;;;;;;4.00;3.60;;;;;;;;;;5076070;28;20086;-68
2021/06/11 11:58:33;;;;;;;3.83;3.33;;;;;;;;;;5074900;28;20056;-68
2021/06/11 12:01:00;;;;;;;5.50;3.67;;;;;;;;;;5088345;28;20457;-68
2021/06/11 12:03:26;;;;;;;3.60;3.15;;;;;;;;;;5094440;28;20044;-68
2021/06/11 12:05:52;;;;;;;4.30;2.92;;;;;;;;;;5094914;28;20526;-68
2021/06/11 12:08:18;;;;;;;4.20;3.03;;;;;;;;;;5083471;28;20135;-68
2021/06/11 12:10:44;;;;;;;4.35;3.38;;;;;;;;;;5085575;28;20487;-68
2021/06/11 12:13:11;;;;;;;3.55;2.92;;;;;;;;;;5094151;28;20131;-68
2021/06/11 12:15:37;;;;;;;3.50;3.17;;;;;;;;;;5094598;28;20044;-68
2021/06/11 12:18:03;;;;;;;3.50;3.05;;;;;;;;;;5094642;28;20415;-68
2021/06/11 12:20:32;;;;;;;4.10;2.90;;;;;;;;;;5086977;28;20059;-68
2021/06/11 12:22:58;;;;;;;3.47;2.95;;;;;;;;;;5093354;28;20481;-68
2021/06/11 12:25:25;;;;;;;3.63;3.00;;;;;;;;;;5093894;28;20044;-68
2021/06/11 12:27:51;;;;;;;3.75;2.90;;;;;;;;;;5082371;28;20056;-68
2021/06/11 12:30:18;;;;;;;4.55;3.15;;;;;;;;;;5083953;28;20041;-68
2021/06/11 12:32:44;;;;;;;4.35;3.40;;;;;;;;;;5084149;28;20399;-68
2021/06/11 12:35:11;;;;;;;4.75;3.05;;;;;;;;;;5086195;28;20507;-67
2021/06/11 12:37:37;;;;;;;3.40;2.72;;;;;;;;;;5083937;28;20378;-67
2021/06/11 12:40:05;;;;;;;4.57;2.60;;;;;;;;;;5082345;28;20139;-68
2021/06/11 12:42:33;;;;;;;3.53;3.08;;;;;;;;;;5089732;28;20174;-67
2021/06/11 12:44:59;;;;;;;3.53;2.85;;;;;;;;;;5082807;28;20072;-68
2021/06/11 12:47:26;;;;;;;3.28;2.97;;;;;;;;;;5078351;28;20389;-67
2021/06/11 12:49:53;;;;;;;4.70;3.33;;;;;;;;;;5083511;28;20074;-67
2021/06/11 12:52:19;;;;;;;3.97;3.20;;;;;;;;;;5073778;28;20048;-67
2021/06/11 12:54:44;;;;;;;3.45;3.05;;;;;;;;;;5087099;28;20093;-67
2021/06/11 12:57:13;;;;;;;4.03;2.95;;;;;;;;;;5083841;28;20059;-68
2021/06/11 12:59:44;;;;;;;5.07;2.92;;;;;;;;;;5090726;28;20048;-68
2021/06/11 13:02:09;;;;;;;5.60;2.90;;;;;;;;;;5087199;28;20044;-67
2021/06/11 13:04:37;;;;;;;4.93;3.40;;;;;;;;;;5078581;28;20044;-67
2021/06/11 13:07:03;;;;;;;3.22;2.92;;;;;;;;;;5085548;28;20051;-68
2021/06/11 13:09:30;;;;;;;4.35;3.22;;;;;;;;;;5089652;28;20105;-68
2021/06/11 13:11:57;;;;;;;4.50;2.70;;;;;;;;;;5073238;28;20052;-68
2021/06/11 13:14:23;;;;;;;4.28;2.78;;;;;;;;;;5081627;28;20036;-68
2021/06/11 13:16:49;;;;;;;3.78;2.80;;;;;;;;;;5083161;28;20126;-67
2021/06/11 13:19:15;;;;;;;3.42;2.75;;;;;;;;;;5087145;28;20041;-67
2021/06/11 13:21:42;;;;;;;3.00;2.70;;;;;;;;;;5082923;28;20446;-67
2021/06/11 13:24:09;;;;;;;4.50;3.05;;;;;;;;;;5082868;28;20397;-68
2021/06/11 13:26:36;;;;;;;4.45;3.28;;;;;;;;;;5085264;28;20052;-68
2021/06/11 13:29:02;;;;;;;4.15;3.20;;;;;;;;;;5080057;28;20505;-68
2021/06/11 13:31:28;;;;;;;4.30;2.90;;;;;;;;;;5077199;28;20048;-68
2021/06/11 13:33:54;;;;;;;4.07;3.08;;;;;;;;;;5082089;28;20036;-68
2021/06/11 13:36:20;;;;;;;3.95;3.47;;;;;;;;;;5084249;28;20079;-68
2021/06/11 13:38:50;;;;;;;6.03;3.00;;;;;;;;;;5083972;28;20040;-68
2021/06/11 13:41:16;;;;;;;3.65;2.70;;;;;;;;;;5086124;28;20431;-67
2021/06/11 13:43:42;;;;;;;3.90;2.97;;;;;;;;;;5085799;28;20473;-67
2021/06/11 13:46:08;;;;;;;3.80;2.92;;;;;;;;;;5074379;28;20045;-67
2021/06/11 13:48:34;;;;;;;3.53;2.67;;;;;;;;;;5084542;28;20044;-67
2021/06/11 13:51:00;;;;;;;3.35;2.97;;;;;;;;;;5073927;28;20079;-67
2021/06/11 13:53:26;;;;;;;5.43;2.50;;;;;;;;;;5072571;28;20049;-66
2021/06/11 13:55:53;;;;;;;3.00;2.50;;;;;;;;;;5072534;28;20093;-66
2021/06/11 13:58:19;;;;;;;3.88;2.90;;;;;;;;;;5072262;28;20062;-67
2021/06/11 14:00:45;;;;;;;3.20;2.70;;;;;;;;;;5073112;28;20082;-66
2021/06/11 14:03:11;;;;;;;3.97;2.30;;;;;;;;;;5071577;28;20049;-66
2021/06/11 14:05:39;;;;;;;3.25;2.65;;;;;;;;;;5073143;28;20048;-67
2021/06/11 14:08:06;;;;;;;3.22;2.33;;;;;;;;;;5081891;28;20057;-66
2021/06/11 14:10:32;;;;;;;4.47;2.80;;;;;;;;;;5073182;28;20448;-66
2021/06/11 14:12:59;;;;;;;3.20;2.30;;;;;;;;;;5072700;28;20040;-67
2021/06/11 14:15:25;;;;;;;3.40;2.70;;;;;;;;;;5080796;28;20101;-66
2021/06/11 14:17:53;;;;;;;3.10;2.30;;;;;;;;;;5089782;28;20048;-66
2021/06/11 14:20:19;;;;;;;3.47;2.50;;;;;;;;;;5084836;28;20099;-66
2021/06/11 14:22:46;;;;;;;3.85;2.22;;;;;;;;;;5077979;28;20059;-66
2021/06/11 14:25:12;;;;;;;1.95;1.70;;;;;;;;;;5083469;28;20443;-66
2021/06/11 14:27:42;;;;;;;2.55;2.05;;;;;;;;;;5072070;28;20528;-66
2021/06/11 14:30:12;;;;;;;2.53;1.85;;;;;;;;;;5076369;28;20067;-67
2021/06/11 14:32:38;;;;;;;2.80;2.00;;;;;;;;;;5081659;28;20047;-67
2021/06/11 14:35:05;;;;;;;2.47;2.03;;;;;;;;;;5078860;28;20048;-67
2021/06/11 14:37:31;;;;;;;2.30;1.80;;;;;;;;;;5084292;28;20392;-67
2021/06/11 14:39:57;;;;;;;3.85;1.63;;;;;;;;;;5083033;28;20083;-66
2021/06/11 14:42:23;;;;;;;2.65;1.65;;;;;;;;;;5085370;28;20447;-66
2021/06/11 14:44:49;;;;;;;2.17;1.58;;;;;;;;;;5079897;28;20408;-67